sensor_id;sensor_type;location;lat;lon;timestamp;pressure;altitude;pressure_sealevel;temperature;humidity
42601;BME280;28229;48.856;9.088;2022-09-01T00:00:39;98163.19;;;14.94;100.00
42601;BME280;28229;48.856;9.088;2022-09-01T00:03:07;98160.91;;;14.85;100.00
42601;BME280;28229;48.856;9.088;2022-09-01T00:05:37;98172.16;;;14.93;100.00
42601;BME280;28229;48.856;9.088;2022-09-01T00:08:04;98167.22;;;14.84;100.00
42601;BME280;28229;48.856;9.088;2022-09-01T00:10:30;98175.78;;;14.87;100.00
42601;BME280;28229;48.856;9.088;2022-09-01T00:12:56;98171.69;;;14.96;100.00
42601;BME280;28229;48.856;9.088;2022-09-01T00:15:22;98178.75;;;14.90;100.00
42601;BME280;28229;48.856;9.088;2022-09-01T00:17:48;98176.09;;;14.90;99.90
42601;BME280;28229;48.856;9.088;2022-09-01T00:20:14;98172.75;;;14.83;100.00
42601;BME280;28229;48.856;9.088;2022-09-01T00:22:40;98176.63;;;14.75;100.00
42601;BME280;28229;48.856;9.088;2022-09-01T00:25:06;98179.72;;;14.72;100.00
42601;BME280;28229;48.856;9.088;2022-09-01T00:27:32;98181.03;;;14.70;100.00
42601;BME280;28229;48.856;9.088;2022-09-01T00:29:59;98177.16;;;14.48;100.00
42601;BME280;28229;48.856;9.088;2022-09-01T00:32:25;98173.50;;;14.50;100.00
42601;BME280;28229;48.856;9.088;2022-09-01T00:34:53;98169.69;;;14.45;100.00
42601;BME280;28229;48.856;9.088;2022-09-01T00:37:19;98169.13;;;14.43;100.00
42601;BME280;28229;48.856;9.088;2022-09-01T00:39:45;98179.03;;;14.36;100.00
42601;BME280;28229;48.856;9.088;2022-09-01T00:42:11;98178.13;;;14.42;100.00
42601;BME280;28229;48.856;9.088;2022-09-01T00:44:37;98171.50;;;14.28;100.00
42601;BME280;28229;48.856;9.088;2022-09-01T00:47:03;98164.59;;;14.27;100.00
42601;BME280;28229;48.856;9.088;2022-09-01T00:49:35;98166.44;;;14.26;100.00
42601;BME280;28229;48.856;9.088;2022-09-01T00:52:16;98164.88;;;14.14;100.00
42601;BME280;28229;48.856;9.088;2022-09-01T00:54:52;98162.13;;;14.08;100.00
42601;BME280;28229;48.856;9.088;2022-09-01T00:57:20;98163.72;;;14.09;100.00
42601;BME280;28229;48.856;9.088;2022-09-01T00:59:52;98160.38;;;14.02;100.00
42601;BME280;28229;48.856;9.088;2022-09-01T01:02:19;98154.75;;;13.99;100.00
42601;BME280;28229;48.856;9.088;2022-09-01T01:04:45;98151.22;;;13.93;100.00
42601;BME280;28229;48.856;9.088;2022-09-01T01:07:11;98160.88;;;13.87;100.00
42601;BME280;28229;48.856;9.088;2022-09-01T01:09:41;98149.97;;;13.84;100.00
42601;BME280;28229;48.856;9.088;2022-09-01T01:12:10;98160.56;;;13.84;100.00
42601;BME280;28229;48.856;9.088;2022-09-01T01:14:47;98165.72;;;13.79;100.00
42601;BME280;28229;48.856;9.088;2022-09-01T01:17:19;98164.31;;;13.88;100.00
42601;BME280;28229;48.856;9.088;2022-09-01T01:19:47;98158.47;;;13.86;100.00
42601;BME280;28229;48.856;9.088;2022-09-01T01:23:09;98163.31;;;13.77;100.00
42601;BME280;28229;48.856;9.088;2022-09-01T01:25:51;98164.44;;;13.93;100.00
42601;BME280;28229;48.856;9.088;2022-09-01T01:30:55;98156.41;;;13.88;100.00
42601;BME280;28229;48.856;9.088;2022-09-01T01:33:28;98160.56;;;13.84;100.00
42601;BME280;28229;48.856;9.088;2022-09-01T01:35:55;98159.31;;;13.75;100.00
42601;BME280;28229;48.856;9.088;2022-09-01T01:38:24;98158.81;;;13.78;100.00
42601;BME280;28229;48.856;9.088;2022-09-01T01:40:52;98157.47;;;13.63;100.00
42601;BME280;28229;48.856;9.088;2022-09-01T01:43:20;98155.97;;;13.67;100.00
42601;BME280;28229;48.856;9.088;2022-09-01T01:45:52;98160.94;;;13.64;100.00
42601;BME280;28229;48.856;9.088;2022-09-01T01:48:28;98165.97;;;13.65;100.00
42601;BME280;28229;48.856;9.088;2022-09-01T01:50:55;98157.47;;;13.63;100.00
42601;BME280;28229;48.856;9.088;2022-09-01T01:53:22;98161.50;;;13.54;100.00
42601;BME280;28229;48.856;9.088;2022-09-01T01:55:49;98156.66;;;13.51;100.00
42601;BME280;28229;48.856;9.088;2022-09-01T01:58:16;98153.44;;;13.49;100.00
42601;BME280;28229;48.856;9.088;2022-09-01T02:00:46;98159.78;;;13.48;100.00
42601;BME280;28229;48.856;9.088;2022-09-01T02:03:14;98154.13;;;13.56;100.00
42601;BME280;28229;48.856;9.088;2022-09-01T02:05:46;98162.28;;;13.66;100.00
42601;BME280;28229;48.856;9.088;2022-09-01T02:08:14;98163.78;;;13.62;100.00
42601;BME280;28229;48.856;9.088;2022-09-01T02:10:44;98161.50;;;13.54;100.00
42601;BME280;28229;48.856;9.088;2022-09-01T02:13:13;98161.59;;;13.47;100.00
42601;BME280;28229;48.856;9.088;2022-09-01T02:15:49;98169.19;;;13.44;100.00
42601;BME280;28229;48.856;9.088;2022-09-01T02:18:19;98158.97;;;13.36;100.00
42601;BME280;28229;48.856;9.088;2022-09-01T02:20:48;98165.28;;;13.35;100.00
42601;BME280;28229;48.856;9.088;2022-09-01T02:23:16;98161.38;;;13.37;100.00
42601;BME280;28229;48.856;9.088;2022-09-01T02:25:44;98161.84;;;13.34;100.00
42601;BME280;28229;48.856;9.088;2022-09-01T02:28:14;98153.44;;;13.49;100.00
42601;BME280;28229;48.856;9.088;2022-09-01T02:30:44;98171.81;;;13.44;100.00
42601;BME280;28229;48.856;9.088;2022-09-01T02:33:15;98163.31;;;13.42;100.00
42601;BME280;28229;48.856;9.088;2022-09-01T02:35:58;98163.56;;;13.52;100.00
42601;BME280;28229;48.856;9.088;2022-09-01T02:38:25;98156.31;;;13.47;100.00
42601;BME280;28229;48.856;9.088;2022-09-01T02:40:56;98156.09;;;13.61;100.00
42601;BME280;28229;48.856;9.088;2022-09-01T02:43:24;98163.56;;;13.52;100.00
42601;BME280;28229;48.856;9.088;2022-09-01T02:45:55;98167.81;;;13.53;100.00
42601;BME280;28229;48.856;9.088;2022-09-01T02:48:39;98158.97;;;13.59;100.00
42601;BME280;28229;48.856;9.088;2022-09-01T02:51:09;98164.03;;;13.61;100.00
42601;BME280;28229;48.856;9.088;2022-09-01T02:53:50;98156.88;;;13.61;100.00
42601;BME280;28229;48.856;9.088;2022-09-01T02:56:22;98158.50;;;13.62;100.00
42601;BME280;28229;48.856;9.088;2022-09-01T02:58:49;98158.50;;;13.62;100.00
42601;BME280;28229;48.856;9.088;2022-09-01T03:01:20;98157.00;;;13.55;100.00
42601;BME280;28229;48.856;9.088;2022-09-01T03:03:53;98164.00;;;13.49;100.00
42601;BME280;28229;48.856;9.088;2022-09-01T03:06:21;98162.75;;;13.40;100.00
42601;BME280;28229;48.856;9.088;2022-09-01T03:08:51;98159.41;;;13.32;100.00
42601;BME280;28229;48.856;9.088;2022-09-01T03:11:17;98154.56;;;13.29;100.00
42601;BME280;28229;48.856;9.088;2022-09-01T03:13:44;98151.91;;;13.29;100.00
42601;BME280;28229;48.856;9.088;2022-09-01T03:16:11;98155.19;;;13.31;100.00
42601;BME280;28229;48.856;9.088;2022-09-01T03:18:37;98155.47;;;13.23;100.00
42601;BME280;28229;48.856;9.088;2022-09-01T03:21:04;98153.41;;;13.25;100.00
42601;BME280;28229;48.856;9.088;2022-09-01T03:23:31;98157.31;;;13.11;100.00
42601;BME280;28229;48.856;9.088;2022-09-01T03:25:58;98154.63;;;12.99;100.00
42601;BME280;28229;48.856;9.088;2022-09-01T03:28:26;98142.47;;;12.98;100.00
42601;BME280;28229;48.856;9.088;2022-09-01T03:30:54;98150.19;;;13.00;100.00
42601;BME280;28229;48.856;9.088;2022-09-01T03:33:22;98151.69;;;13.07;100.00
42601;BME280;28229;48.856;9.088;2022-09-01T03:35:48;98153.66;;;13.12;100.00
42601;BME280;28229;48.856;9.088;2022-09-01T03:38:14;98157.31;;;13.11;100.00
42601;BME280;28229;48.856;9.088;2022-09-01T03:40:53;98161.31;;;13.02;100.00
42601;BME280;28229;48.856;9.088;2022-09-01T03:43:20;98163.25;;;12.94;100.00
42601;BME280;28229;48.856;9.088;2022-09-01T03:45:50;98159.34;;;12.85;100.00
42601;BME280;28229;48.856;9.088;2022-09-01T03:48:16;98153.72;;;12.82;100.00
42601;BME280;28229;48.856;9.088;2022-09-01T03:50:43;98158.63;;;12.78;100.00
42601;BME280;28229;48.856;9.088;2022-09-01T03:53:12;98154.25;;;12.72;100.00
42601;BME280;28229;48.856;9.088;2022-09-01T03:55:38;98140.81;;;12.73;100.00
42601;BME280;28229;48.856;9.088;2022-09-01T03:58:07;98154.69;;;12.69;100.00
42601;BME280;28229;48.856;9.088;2022-09-01T04:00:38;98146.63;;;12.64;100.00
42601;BME280;28229;48.856;9.088;2022-09-01T04:03:08;98146.06;;;12.62;100.00
42601;BME280;28229;48.856;9.088;2022-09-01T04:05:36;98151.69;;;12.65;100.00
42601;BME280;28229;48.856;9.088;2022-09-01T04:08:06;98156.84;;;12.60;100.00
42601;BME280;28229;48.856;9.088;2022-09-01T04:10:34;98155.94;;;12.66;100.00
42601;BME280;28229;48.856;9.088;2022-09-01T04:13:01;98156.09;;;12.71;100.00
42601;BME280;28229;48.856;9.088;2022-09-01T04:15:27;98156.78;;;12.79;100.00
42601;BME280;28229;48.856;9.088;2022-09-01T04:17:54;98151.53;;;12.90;100.00
42601;BME280;28229;48.856;9.088;2022-09-01T04:20:40;98157.50;;;12.86;100.00
42601;BME280;28229;48.856;9.088;2022-09-01T04:23:17;98154.16;;;12.90;100.00
42601;BME280;28229;48.856;9.088;2022-09-01T04:26:08;98162.69;;;12.92;100.00
42601;BME280;28229;48.856;9.088;2022-09-01T04:28:47;98150.19;;;13.00;100.00
42601;BME280;28229;48.856;9.088;2022-09-01T04:31:18;98160.13;;;12.98;100.00
42601;BME280;28229;48.856;9.088;2022-09-01T04:33:49;98159.47;;;13.02;100.00
42601;BME280;28229;48.856;9.088;2022-09-01T04:36:26;98160.16;;;13.09;100.00
42601;BME280;28229;48.856;9.088;2022-09-01T04:38:55;98170.75;;;13.09;100.00
42601;BME280;28229;48.856;9.088;2022-09-01T04:41:27;98159.38;;;13.09;100.00
42601;BME280;28229;48.856;9.088;2022-09-01T04:43:57;98169.03;;;13.15;100.00
42601;BME280;28229;48.856;9.088;2022-09-01T04:46:25;98175.00;;;13.10;100.00
42601;BME280;28229;48.856;9.088;2022-09-01T04:48:54;98160.16;;;13.09;100.00
42601;BME280;28229;48.856;9.088;2022-09-01T04:51:21;98166.84;;;13.12;100.00
42601;BME280;28229;48.856;9.088;2022-09-01T04:53:50;98165.47;;;13.09;100.00
42601;BME280;28229;48.856;9.088;2022-09-01T04:56:18;98161.31;;;13.13;100.00
42601;BME280;28229;48.856;9.088;2022-09-01T04:58:51;98167.28;;;13.21;100.00
42601;BME280;28229;48.856;9.088;2022-09-01T05:01:22;98170.78;;;13.33;100.00
42601;BME280;28229;48.856;9.088;2022-09-01T05:03:49;98170.41;;;13.29;100.00
42601;BME280;28229;48.856;9.088;2022-09-01T05:06:40;98167.91;;;13.35;100.00
42601;BME280;28229;48.856;9.088;2022-09-01T05:09:09;98172.75;;;13.38;100.00
42601;BME280;28229;48.856;9.088;2022-09-01T05:11:44;98166.75;;;13.30;100.00
42601;BME280;28229;48.856;9.088;2022-09-01T05:14:21;98167.66;;;13.24;100.00
42601;BME280;28229;48.856;9.088;2022-09-01T05:16:48;98166.38;;;13.15;100.00
42601;BME280;28229;48.856;9.088;2022-09-01T05:19:16;98170.88;;;13.14;100.00
42601;BME280;28229;48.856;9.088;2022-09-01T05:21:46;98175.66;;;13.06;100.00
42601;BME280;28229;48.856;9.088;2022-09-01T05:24:16;98171.78;;;13.08;100.00
42601;BME280;28229;48.856;9.088;2022-09-01T05:26:44;98171.88;;;13.02;100.00
42601;BME280;28229;48.856;9.088;2022-09-01T05:29:12;98177.81;;;12.85;100.00
42601;BME280;28229;48.856;9.088;2022-09-01T05:31:42;98174.81;;;12.82;100.00
42601;BME280;28229;48.856;9.088;2022-09-01T05:34:09;98169.34;;;12.95;100.00
42601;BME280;28229;48.856;9.088;2022-09-01T05:36:40;98179.69;;;12.97;100.00
42601;BME280;28229;48.856;9.088;2022-09-01T05:39:07;98178.88;;;13.08;100.00
42601;BME280;28229;48.856;9.088;2022-09-01T05:41:36;98181.03;;;12.99;100.00
42601;BME280;28229;48.856;9.088;2022-09-01T05:44:03;98182.66;;;13.00;100.00
42601;BME280;28229;48.856;9.088;2022-09-01T05:46:31;98177.41;;;13.12;100.00
42601;BME280;28229;48.856;9.088;2022-09-01T05:48:58;98177.16;;;13.13;100.00
42601;BME280;28229;48.856;9.088;2022-09-01T05:51:26;98175.91;;;13.28;100.00
42601;BME280;28229;48.856;9.088;2022-09-01T05:53:54;98177.09;;;13.44;100.00
42601;BME280;28229;48.856;9.088;2022-09-01T05:56:25;98179.53;;;13.45;100.00
42601;BME280;28229;48.856;9.088;2022-09-01T05:58:52;98174.59;;;13.49;100.00
42601;BME280;28229;48.856;9.088;2022-09-01T06:01:26;98165.53;;;13.57;100.00
42601;BME280;28229;48.856;9.088;2022-09-01T06:03:56;98168.28;;;13.62;100.00
42601;BME280;28229;48.856;9.088;2022-09-01T06:06:29;98172.03;;;13.78;100.00
42601;BME280;28229;48.856;9.088;2022-09-01T06:08:56;98168.81;;;13.87;100.00
42601;BME280;28229;48.856;9.088;2022-09-01T06:11:27;98167.31;;;13.92;100.00
42601;BME280;28229;48.856;9.088;2022-09-01T06:13:59;98169.16;;;14.03;100.00
42601;BME280;28229;48.856;9.088;2022-09-01T06:16:25;98168.53;;;14.13;100.00
42601;BME280;28229;48.856;9.088;2022-09-01T06:18:55;98167.13;;;14.22;100.00
42601;BME280;28229;48.856;9.088;2022-09-01T06:21:22;98170.53;;;14.34;100.00
42601;BME280;28229;48.856;9.088;2022-09-01T06:23:50;98177.16;;;14.48;100.00
42601;BME280;28229;48.856;9.088;2022-09-01T06:26:24;98172.88;;;14.59;100.00
42601;BME280;28229;48.856;9.088;2022-09-01T06:28:59;98173.41;;;14.73;100.00
42601;BME280;28229;48.856;9.088;2022-09-01T06:31:29;98175.69;;;14.81;100.00
42601;BME280;28229;48.856;9.088;2022-09-01T06:34:02;98174.72;;;14.88;100.00
42601;BME280;28229;48.856;9.088;2022-09-01T06:36:30;98171.81;;;14.89;100.00
42601;BME280;28229;48.856;9.088;2022-09-01T06:38:57;98169.25;;;15.11;98.71
42601;BME280;28229;48.856;9.088;2022-09-01T06:41:27;98168.78;;;15.14;98.79
42601;BME280;28229;48.856;9.088;2022-09-01T06:43:54;98169.28;;;15.28;98.76
42601;BME280;28229;48.856;9.088;2022-09-01T06:46:21;98166.78;;;15.38;98.24
42601;BME280;28229;48.856;9.088;2022-09-01T06:48:48;98171.03;;;15.56;96.10
42601;BME280;28229;48.856;9.088;2022-09-01T06:51:18;98167.94;;;15.65;95.05
42601;BME280;28229;48.856;9.088;2022-09-01T06:53:46;98172.16;;;15.77;93.46
42601;BME280;28229;48.856;9.088;2022-09-01T06:56:18;98165.91;;;15.89;93.20
42601;BME280;28229;48.856;9.088;2022-09-01T06:58:45;98171.41;;;16.04;91.05
42601;BME280;28229;48.856;9.088;2022-09-01T07:01:17;98185.88;;;16.13;89.90
42601;BME280;28229;48.856;9.088;2022-09-01T07:03:46;98187.75;;;16.18;90.24
42601;BME280;28229;48.856;9.088;2022-09-01T07:06:28;98180.59;;;16.41;88.29
42601;BME280;28229;48.856;9.088;2022-09-01T07:09:16;98186.09;;;16.56;87.76
42601;BME280;28229;48.856;9.088;2022-09-01T07:11:46;98184.63;;;16.70;86.20
42601;BME280;28229;48.856;9.088;2022-09-01T07:14:14;98190.09;;;16.86;85.38
42601;BME280;28229;48.856;9.088;2022-09-01T07:16:41;98186.75;;;16.96;83.89
42601;BME280;28229;48.856;9.088;2022-09-01T07:19:10;98201.47;;;17.08;82.60
42601;BME280;28229;48.856;9.088;2022-09-01T07:21:47;98195.13;;;17.09;82.02
42601;BME280;28229;48.856;9.088;2022-09-01T07:24:14;98197.97;;;17.03;82.00
42601;BME280;28229;48.856;9.088;2022-09-01T07:27:03;98192.63;;;16.98;83.13
42601;BME280;28229;48.856;9.088;2022-09-01T07:29:29;98197.03;;;17.19;82.48
42601;BME280;28229;48.856;9.088;2022-09-01T07:31:55;98190.53;;;17.37;81.89
42601;BME280;28229;48.856;9.088;2022-09-01T07:34:21;98203.38;;;17.45;80.53
42601;BME280;28229;48.856;9.088;2022-09-01T07:36:48;98200.75;;;17.50;79.45
42601;BME280;28229;48.856;9.088;2022-09-01T07:39:14;98203.94;;;17.53;79.54
42601;BME280;28229;48.856;9.088;2022-09-01T07:42:03;98211.97;;;17.63;79.69
42601;BME280;28229;48.856;9.088;2022-09-01T07:44:54;98206.72;;;17.73;80.17
42601;BME280;28229;48.856;9.088;2022-09-01T07:47:47;98205.72;;;17.79;78.34
42601;BME280;28229;48.856;9.088;2022-09-01T07:50:13;98215.38;;;17.91;77.39
42601;BME280;28229;48.856;9.088;2022-09-01T07:52:41;98214.91;;;17.99;76.50
42601;BME280;28229;48.856;9.088;2022-09-01T07:55:12;98216.00;;;18.08;75.86
42601;BME280;28229;48.856;9.088;2022-09-01T07:57:46;98215.81;;;18.25;75.03
42601;BME280;28229;48.856;9.088;2022-09-01T08:00:15;98207.63;;;18.42;74.56
42601;BME280;28229;48.856;9.088;2022-09-01T08:02:45;98211.19;;;18.68;73.67
42601;BME280;28229;48.856;9.088;2022-09-01T08:05:16;98209.38;;;18.94;71.60
42601;BME280;28229;48.856;9.088;2022-09-01T08:07:45;98214.72;;;19.15;70.54
42601;BME280;28229;48.856;9.088;2022-09-01T08:10:14;98211.50;;;19.23;69.97
42601;BME280;28229;48.856;9.088;2022-09-01T08:12:40;98220.06;;;19.25;69.52
42601;BME280;28229;48.856;9.088;2022-09-01T08:15:08;98216.34;;;19.36;69.59
42601;BME280;28229;48.856;9.088;2022-09-01T08:17:36;98221.41;;;19.43;68.65
42601;BME280;28229;48.856;9.088;2022-09-01T08:20:06;98222.72;;;19.46;68.37
42601;BME280;28229;48.856;9.088;2022-09-01T08:22:47;98225.13;;;19.42;68.20
42601;BME280;28229;48.856;9.088;2022-09-01T08:25:19;98223.25;;;19.48;68.55
42601;BME280;28229;48.856;9.088;2022-09-01T08:27:45;98222.72;;;19.46;69.31
42601;BME280;28229;48.856;9.088;2022-09-01T08:30:11;98222.19;;;19.54;69.00
42601;BME280;28229;48.856;9.088;2022-09-01T08:32:39;98221.38;;;19.53;68.50
42601;BME280;28229;48.856;9.088;2022-09-01T08:35:10;98221.91;;;19.60;68.47
42601;BME280;28229;48.856;9.088;2022-09-01T08:37:37;98222.72;;;19.61;67.32
42601;BME280;28229;48.856;9.088;2022-09-01T08:40:05;98223.25;;;19.68;67.26
42601;BME280;28229;48.856;9.088;2022-09-01T08:45:27;98218.97;;;19.67;66.09
42601;BME280;28229;48.856;9.088;2022-09-01T08:47:58;98230.97;;;19.80;66.56
42601;BME280;28229;48.856;9.088;2022-09-01T08:50:27;98231.22;;;19.84;66.24
42601;BME280;28229;48.856;9.088;2022-09-01T08:53:41;98222.09;;;20.05;65.68
42601;BME280;28229;48.856;9.088;2022-09-01T08:56:11;98237.09;;;19.96;65.58
42601;BME280;28229;48.856;9.088;2022-09-01T08:58:38;98229.63;;;19.93;64.81
42601;BME280;28229;48.856;9.088;2022-09-01T09:06:41;98234.38;;;20.11;61.51
42601;BME280;28229;48.856;9.088;2022-09-01T09:09:12;98234.34;;;20.27;60.26
42601;BME280;28229;48.856;9.088;2022-09-01T09:12:06;98234.84;;;20.34;60.97
42601;BME280;28229;48.856;9.088;2022-09-01T09:17:36;98236.94;;;20.42;59.83
42601;BME280;28229;48.856;9.088;2022-09-01T09:20:05;98228.63;;;20.49;59.27
42601;BME280;28229;48.856;9.088;2022-09-01T09:22:31;98235.09;;;20.38;57.51
42601;BME280;28229;48.856;9.088;2022-09-01T09:25:17;98229.44;;;20.44;57.80
42601;BME280;28229;48.856;9.088;2022-09-01T09:27:45;98227.25;;;20.57;58.40
42601;BME280;28229;48.856;9.088;2022-09-01T09:30:22;98230.44;;;20.59;58.17
42601;BME280;28229;48.856;9.088;2022-09-01T09:32:55;98233.06;;;20.74;57.62
42601;BME280;28229;48.856;9.088;2022-09-01T09:38:15;98234.59;;;20.85;59.32
42601;BME280;28229;48.856;9.088;2022-09-01T09:41:05;98234.09;;;20.83;57.39
42601;BME280;28229;48.856;9.088;2022-09-01T09:43:34;98233.47;;;20.97;56.94
42601;BME280;28229;48.856;9.088;2022-09-01T09:51:32;98222.66;;;21.12;56.43
42601;BME280;28229;48.856;9.088;2022-09-01T09:54:19;98238.22;;;21.05;57.26
42601;BME280;28229;48.856;9.088;2022-09-01T09:56:46;98236.34;;;21.10;57.26
42601;BME280;28229;48.856;9.088;2022-09-01T09:59:25;98230.97;;;21.10;56.79
42601;BME280;28229;48.856;9.088;2022-09-01T10:01:56;98228.88;;;21.02;57.95
42601;BME280;28229;48.856;9.088;2022-09-01T10:04:33;98224.81;;;21.10;58.16
42601;BME280;28229;48.856;9.088;2022-09-01T10:11:56;98215.72;;;21.11;56.71
42601;BME280;28229;48.856;9.088;2022-09-01T10:14:27;98218.38;;;21.16;57.17
42601;BME280;28229;48.856;9.088;2022-09-01T10:16:59;98219.75;;;21.08;56.88
42601;BME280;28229;48.856;9.088;2022-09-01T10:19:28;98218.13;;;21.13;56.73
42601;BME280;28229;48.856;9.088;2022-09-01T10:21:55;98223.31;;;20.94;56.55
42601;BME280;28229;48.856;9.088;2022-09-01T10:24:31;98230.75;;;21.07;56.36
42601;BME280;28229;48.856;9.088;2022-09-01T10:27:01;98223.50;;;21.07;55.57
42601;BME280;28229;48.856;9.088;2022-09-01T10:29:39;98219.19;;;21.11;55.60
42601;BME280;28229;48.856;9.088;2022-09-01T10:32:10;98224.25;;;21.13;55.60
42601;BME280;28229;48.856;9.088;2022-09-01T10:34:38;98226.41;;;21.11;55.83
42601;BME280;28229;48.856;9.088;2022-09-01T10:37:06;98218.97;;;21.03;55.98
42601;BME280;28229;48.856;9.088;2022-09-01T10:39:32;98224.03;;;21.09;56.37
42601;BME280;28229;48.856;9.088;2022-09-01T10:41:59;98217.38;;;21.07;56.59
42601;BME280;28229;48.856;9.088;2022-09-01T10:44:35;98223.72;;;21.16;56.22
42601;BME280;28229;48.856;9.088;2022-09-01T10:47:32;98223.38;;;21.23;56.04
42601;BME280;28229;48.856;9.088;2022-09-01T10:50:05;98217.41;;;21.36;55.55
42601;BME280;28229;48.856;9.088;2022-09-01T10:55:18;98218.66;;;22.02;53.71
42601;BME280;28229;48.856;9.088;2022-09-01T10:58:01;98209.44;;;22.57;53.15
42601;BME280;28229;48.856;9.088;2022-09-01T11:11:21;98195.88;;;23.71;47.86
42601;BME280;28229;48.856;9.088;2022-09-01T11:13:53;98197.44;;;23.72;48.07
42601;BME280;28229;48.856;9.088;2022-09-01T11:16:35;98193.69;;;23.73;47.71
42601;BME280;28229;48.856;9.088;2022-09-01T11:21:47;98190.53;;;23.38;47.42
42601;BME280;28229;48.856;9.088;2022-09-01T11:27:05;98185.03;;;23.62;47.61
42601;BME280;28229;48.856;9.088;2022-09-01T11:29:54;98179.78;;;23.85;46.75
42601;BME280;28229;48.856;9.088;2022-09-01T11:32:25;98182.84;;;23.78;46.96
42601;BME280;28229;48.856;9.088;2022-09-01T11:34:53;98183.53;;;23.70;47.58
42601;BME280;28229;48.856;9.088;2022-09-01T11:37:22;98176.81;;;24.00;45.97
42601;BME280;28229;48.856;9.088;2022-09-01T11:39:51;98166.25;;;24.18;45.67
42601;BME280;28229;48.856;9.088;2022-09-01T11:42:32;98169.91;;;24.08;45.52
42601;BME280;28229;48.856;9.088;2022-09-01T11:45:04;98172.00;;;24.11;46.12
42601;BME280;28229;48.856;9.088;2022-09-01T11:47:43;98168.44;;;24.16;46.22
42601;BME280;28229;48.856;9.088;2022-09-01T11:50:25;98170.09;;;24.25;44.37
42601;BME280;28229;48.856;9.088;2022-09-01T11:52:58;98168.72;;;24.28;44.04
42601;BME280;28229;48.856;9.088;2022-09-01T11:55:29;98168.00;;;24.36;43.46
42601;BME280;28229;48.856;9.088;2022-09-01T11:57:56;98174.53;;;24.58;44.11
42601;BME280;28229;48.856;9.088;2022-09-01T12:00:37;98172.81;;;24.98;45.09
42601;BME280;28229;48.856;9.088;2022-09-01T12:03:26;98172.88;;;25.07;42.82
42601;BME280;28229;48.856;9.088;2022-09-01T12:05:55;98160.59;;;24.92;41.18
42601;BME280;28229;48.856;9.088;2022-09-01T12:08:25;98156.41;;;25.08;41.46
42601;BME280;28229;48.856;9.088;2022-09-01T12:13:28;98161.72;;;25.45;42.81
42601;BME280;28229;48.856;9.088;2022-09-01T12:15:57;98145.06;;;25.74;42.51
42601;BME280;28229;48.856;9.088;2022-09-01T12:18:27;98157.06;;;25.68;40.62
42601;BME280;28229;48.856;9.088;2022-09-01T12:20:58;98148.44;;;25.89;42.73
42601;BME280;28229;48.856;9.088;2022-09-01T12:23:28;98147.06;;;26.00;42.48
42601;BME280;28229;48.856;9.088;2022-09-01T12:26:00;98143.25;;;26.01;42.44
42601;BME280;28229;48.856;9.088;2022-09-01T12:28:29;98152.03;;;26.33;41.88
42601;BME280;28229;48.856;9.088;2022-09-01T12:31:01;98150.13;;;26.59;38.94
42601;BME280;28229;48.856;9.088;2022-09-01T12:33:27;98149.06;;;26.78;39.21
42601;BME280;28229;48.856;9.088;2022-09-01T12:36:23;98149.66;;;27.19;39.48
42601;BME280;28229;48.856;9.088;2022-09-01T12:38:51;98147.56;;;27.42;38.04
42601;BME280;28229;48.856;9.088;2022-09-01T12:41:35;98139.00;;;27.13;38.02
42601;BME280;28229;48.856;9.088;2022-09-01T12:44:28;98145.84;;;26.50;38.06
42601;BME280;28229;48.856;9.088;2022-09-01T12:47:00;98138.69;;;26.45;38.30
42601;BME280;28229;48.856;9.088;2022-09-01T12:49:45;98132.88;;;26.78;39.08
42601;BME280;28229;48.856;9.088;2022-09-01T12:55:08;98125.50;;;27.22;38.04
42601;BME280;28229;48.856;9.088;2022-09-01T12:57:38;98130.63;;;27.53;37.70
42601;BME280;28229;48.856;9.088;2022-09-01T13:02:39;98131.16;;;28.15;36.13
42601;BME280;28229;48.856;9.088;2022-09-01T13:07:59;98134.38;;;27.31;37.75
42601;BME280;28229;48.856;9.088;2022-09-01T13:10:31;98129.56;;;27.46;37.45
42601;BME280;28229;48.856;9.088;2022-09-01T13:12:58;98131.78;;;27.52;36.37
42601;BME280;28229;48.856;9.088;2022-09-01T13:15:25;98125.38;;;27.01;37.82
42601;BME280;28229;48.856;9.088;2022-09-01T13:17:51;98127.13;;;26.97;37.71
42601;BME280;28229;48.856;9.088;2022-09-01T13:20:18;98125.69;;;26.30;39.81
42601;BME280;28229;48.856;9.088;2022-09-01T13:22:44;98120.94;;;26.27;39.15
42601;BME280;28229;48.856;9.088;2022-09-01T13:25:12;98124.06;;;25.94;39.97
42601;BME280;28229;48.856;9.088;2022-09-01T13:27:39;98120.16;;;25.69;40.83
42601;BME280;28229;48.856;9.088;2022-09-01T13:30:10;98128.22;;;25.60;41.30
42601;BME280;28229;48.856;9.088;2022-09-01T13:32:36;98122.94;;;25.55;41.64
42601;BME280;28229;48.856;9.088;2022-09-01T13:35:03;98112.75;;;24.89;42.70
42601;BME280;28229;48.856;9.088;2022-09-01T13:37:29;98109.09;;;24.48;43.79
42601;BME280;28229;48.856;9.088;2022-09-01T13:39:55;98106.72;;;24.10;45.05
42601;BME280;28229;48.856;9.088;2022-09-01T13:42:21;98110.75;;;23.85;45.57
42601;BME280;28229;48.856;9.088;2022-09-01T13:44:47;98100.09;;;23.80;45.61
42601;BME280;28229;48.856;9.088;2022-09-01T13:47:13;98110.31;;;23.50;46.65
42601;BME280;28229;48.856;9.088;2022-09-01T13:49:39;98110.59;;;23.63;46.14
42601;BME280;28229;48.856;9.088;2022-09-01T13:52:04;98112.91;;;23.69;46.33
42601;BME280;28229;48.856;9.088;2022-09-01T13:54:30;98111.69;;;23.62;46.03
42601;BME280;28229;48.856;9.088;2022-09-01T13:56:57;98098.81;;;23.17;46.76
42601;BME280;28229;48.856;9.088;2022-09-01T13:59:23;98104.41;;;23.34;46.82
42601;BME280;28229;48.856;9.088;2022-09-01T14:01:49;98104.25;;;23.59;45.78
42601;BME280;28229;48.856;9.088;2022-09-01T14:04:15;98096.78;;;23.55;45.76
42601;BME280;28229;48.856;9.088;2022-09-01T14:06:43;98096.56;;;23.80;44.85
42601;BME280;28229;48.856;9.088;2022-09-01T14:09:10;98088.59;;;24.16;43.19
42601;BME280;28229;48.856;9.088;2022-09-01T14:11:36;98093.63;;;24.68;41.82